Terminal Aerodrome Forecast
Issued by NWS

Home | Current Version | Previous Version | Graphics & Text | Print | Product List | Glossary On
Versions: 1 2 3 4 5 6 7 8 9 10 11 12 13 14 15 16
000
FTUS43 KGRB 142101 AAA
TAFCWA
TAF AMD
KCWA 142101Z 1421/1518 09009G17KT P6SM -SHRA BKN020 OVC035
      TEMPO 1421/1422 5SM -SHRA BR OVC012
     FM142200 08010G18KT P6SM -SHRA BKN012 OVC020
      TEMPO 1422/1424 5SM -SHRA BR OVC007
     FM150000 03012G19KT 4SM SHRA BR OVC007
     FM151200 33012G25KT P6SM -SHRA BKN020
     FM151700 32012G21KT P6SM -SHRA BKN035=

USA.gov is the U.S. government's official web portal to all federal, state and local government web resources and services.